createdAt,value
2022-08-08T00:00:50.102Z,20.40
2022-08-08T00:03:32.968Z,20.40
2022-08-08T00:06:07.781Z,20.40
2022-08-08T00:09:03.646Z,20.30
2022-08-08T00:12:03.292Z,20.30
2022-08-08T00:14:54.935Z,20.20
2022-08-08T00:17:58.417Z,20.20
2022-08-08T00:20:43.016Z,20.00
2022-08-08T00:23:28.498Z,19.90
2022-08-08T00:26:26.223Z,19.80
2022-08-08T00:29:09.042Z,19.50
2022-08-08T00:32:28.791Z,19.70
2022-08-08T00:35:20.118Z,19.90
2022-08-08T00:38:01.952Z,19.60
2022-08-08T00:41:11.042Z,19.60
2022-08-08T00:43:45.843Z,19.50
2022-08-08T00:46:57.887Z,19.40
2022-08-08T00:49:50.345Z,19.40
2022-08-08T00:52:29.198Z,19.40
2022-08-08T00:55:36.149Z,19.30
2022-08-08T00:58:13.559Z,19.20
2022-08-08T01:01:00.155Z,19.20
2022-08-08T01:04:04.898Z,19.20
2022-08-08T01:07:09.695Z,19.20
2022-08-08T01:10:06.226Z,19.10
2022-08-08T01:13:15.936Z,19.10
2022-08-08T01:15:59.671Z,19.20
2022-08-08T01:18:53.356Z,19.10
2022-08-08T01:21:35.115Z,19.10
2022-08-08T01:24:28.922Z,19.20
2022-08-08T01:27:21.252Z,19.10
2022-08-08T01:30:39.494Z,19.00
2022-08-08T01:33:23.755Z,18.90
2022-08-08T01:36:12.219Z,18.80
2022-08-08T01:39:08.583Z,18.80
2022-08-08T01:42:36.095Z,18.80
2022-08-08T01:45:30.863Z,18.70
2022-08-08T01:48:30.513Z,18.70
2022-08-08T01:51:00.033Z,18.70
2022-08-08T01:55:25.815Z,18.80
2022-08-08T01:58:03.982Z,18.70
2022-08-08T02:00:40.326Z,18.70
2022-08-08T02:03:55.571Z,18.50
2022-08-08T02:06:41.013Z,18.40
2022-08-08T02:10:02.163Z,18.40
2022-08-08T02:12:57.295Z,18.30
2022-08-08T02:15:52.621Z,18.20
2022-08-08T02:18:44.101Z,18.20
2022-08-08T02:21:39.614Z,18.10
2022-08-08T02:24:23.782Z,18.40
2022-08-08T02:26:58.181Z,18.10
2022-08-08T02:30:03.884Z,18.20
2022-08-08T02:32:44.623Z,18.00
2022-08-08T02:36:04.162Z,17.90
2022-08-08T02:38:56.067Z,17.90
2022-08-08T02:41:58.866Z,17.90
2022-08-08T02:44:57.252Z,17.90
2022-08-08T02:47:59.378Z,17.90
2022-08-08T02:51:00.845Z,17.90
2022-08-08T02:53:39.148Z,17.90
2022-08-08T02:56:09.321Z,17.90
2022-08-08T02:59:03.268Z,17.90
2022-08-08T03:02:05.953Z,17.90
2022-08-08T03:05:10.602Z,17.90
2022-08-08T03:08:13.494Z,17.80
2022-08-08T03:11:13.933Z,17.80
2022-08-08T03:15:58.741Z,17.80
2022-08-08T03:17:11.275Z,17.80
2022-08-08T03:20:08.280Z,17.70
2022-08-08T03:23:00.386Z,17.70
2022-08-08T03:25:35.615Z,17.80
2022-08-08T03:28:10.273Z,17.60
2022-08-08T03:30:48.874Z,17.50
2022-08-08T03:33:55.568Z,17.40
2022-08-08T03:36:13.471Z,17.50
2022-08-08T03:38:55.787Z,17.40
2022-08-08T03:42:28.597Z,17.30
2022-08-08T03:44:34.689Z,17.50
2022-08-08T03:47:19.166Z,17.30
2022-08-08T03:50:00.336Z,17.30
2022-08-08T03:52:35.219Z,17.50
2022-08-08T03:55:54.790Z,17.20
2022-08-08T03:58:35.138Z,17.40
2022-08-08T04:01:20.798Z,17.40
2022-08-08T04:03:57.222Z,17.20
2022-08-08T04:06:30.338Z,17.30
2022-08-08T04:09:10.741Z,17.10
2022-08-08T04:11:59.069Z,17.10
2022-08-08T04:14:50.702Z,17.00
2022-08-08T04:17:45.647Z,16.90
2022-08-08T04:20:08.072Z,17.10
2022-08-08T04:22:36.024Z,16.80
2022-08-08T04:25:05.987Z,16.90
2022-08-08T04:28:02.977Z,16.80
2022-08-08T04:30:24.340Z,16.90
2022-08-08T04:32:53.795Z,16.80
2022-08-08T04:35:25.187Z,16.80
2022-08-08T04:37:57.368Z,16.80
2022-08-08T04:40:32.522Z,16.80
2022-08-08T04:43:03.503Z,17.00
2022-08-08T04:45:37.681Z,17.10
2022-08-08T04:48:06.472Z,16.90
2022-08-08T04:50:38.949Z,18.80
2022-08-08T04:54:36.589Z,17.20
2022-08-08T04:56:08.476Z,17.10
2022-08-08T04:58:36.670Z,16.90
2022-08-08T05:01:10.503Z,17.10
2022-08-08T05:04:09.493Z,16.90
2022-08-08T05:06:30.702Z,16.90
2022-08-08T05:09:02.436Z,16.90
2022-08-08T05:11:38.662Z,17.00
2022-08-08T05:14:07.242Z,17.10
2022-08-08T05:16:51.534Z,17.10
2022-08-08T05:20:11.095Z,17.10
2022-08-08T05:22:12.342Z,17.40
2022-08-08T05:24:48.398Z,17.30
2022-08-08T05:27:18.317Z,17.40
2022-08-08T05:29:50.399Z,17.20
2022-08-08T05:32:24.623Z,17.40
2022-08-08T05:35:04.447Z,17.30
2022-08-08T05:37:52.177Z,17.60
2022-08-08T05:40:27.968Z,17.50
2022-08-08T05:43:03.395Z,17.40
2022-08-08T05:46:03.471Z,17.60
2022-08-08T05:48:34.670Z,17.50
2022-08-08T05:51:13.343Z,17.60
2022-08-08T05:54:26.106Z,17.70
2022-08-08T05:56:42.236Z,17.70
2022-08-08T05:59:57.697Z,17.80
2022-08-08T06:02:43.241Z,17.90
2022-08-08T06:05:34.984Z,18.00
2022-08-08T06:08:10.314Z,18.00
2022-08-08T06:10:58.424Z,18.10
2022-08-08T06:13:36.457Z,18.30
2022-08-08T06:16:15.643Z,18.40
2022-08-08T06:19:03.998Z,18.30
2022-08-08T06:21:51.426Z,18.40
2022-08-08T06:24:31.105Z,18.60
2022-08-08T06:27:06.036Z,18.50
2022-08-08T06:30:00.166Z,18.70
2022-08-08T06:32:42.345Z,18.30
2022-08-08T06:36:08.914Z,18.80
2022-08-08T06:38:11.741Z,19.00
2022-08-08T06:40:48.340Z,18.90
2022-08-08T06:43:19.793Z,19.00
2022-08-08T06:45:59.519Z,19.10
2022-08-08T06:48:27.396Z,19.30
2022-08-08T06:50:58.295Z,19.20
2022-08-08T06:53:38.998Z,19.20
2022-08-08T06:56:09.231Z,19.30
2022-08-08T06:58:39.996Z,19.30
2022-08-08T07:02:18.102Z,19.40
2022-08-08T07:04:40.159Z,19.50
2022-08-08T07:07:11.023Z,19.50
2022-08-08T07:09:59.545Z,19.60
2022-08-08T07:12:41.200Z,19.70
2022-08-08T07:15:23.466Z,19.80
2022-08-08T07:18:35.827Z,19.80
2022-08-08T07:20:58.160Z,19.90
2022-08-08T07:24:02.119Z,20.00
2022-08-08T07:26:35.479Z,20.10
2022-08-08T07:29:08.094Z,20.10
2022-08-08T07:31:41.123Z,20.20
2022-08-08T07:34:10.753Z,20.10
2022-08-08T07:36:50.469Z,20.30
2022-08-08T07:39:29.561Z,20.30
2022-08-08T07:42:05.033Z,20.70
2022-08-08T07:44:40.689Z,20.70
2022-08-08T07:47:12.691Z,20.50
2022-08-08T07:49:46.202Z,20.60
2022-08-08T07:52:26.996Z,20.60
2022-08-08T07:55:05.660Z,20.60
2022-08-08T07:57:59.312Z,20.70
2022-08-08T08:00:38.472Z,20.60
2022-08-08T08:03:23.742Z,20.70
2022-08-08T08:05:55.535Z,20.80
2022-08-08T08:08:56.970Z,20.80
2022-08-08T08:11:34.112Z,20.90
2022-08-08T08:14:47.005Z,20.90
2022-08-08T08:17:20.965Z,21.00
2022-08-08T08:19:55.729Z,21.10
2022-08-08T08:22:31.227Z,21.70
2022-08-08T08:25:07.444Z,21.20
2022-08-08T08:27:37.002Z,21.40
2022-08-08T08:30:05.907Z,21.40
2022-08-08T08:32:41.148Z,21.50
2022-08-08T08:35:21.456Z,21.60
2022-08-08T08:40:48.737Z,21.70
2022-08-08T08:43:26.752Z,21.70
2022-08-08T08:45:57.727Z,21.80
2022-08-08T08:48:26.318Z,21.90
2022-08-08T08:50:56.325Z,22.00
2022-08-08T08:53:54.462Z,22.00
2022-08-08T08:56:24.243Z,22.10
2022-08-08T08:58:58.053Z,22.20
2022-08-08T09:01:43.692Z,22.30
2022-08-08T09:04:32.162Z,22.40
2022-08-08T09:07:15.189Z,22.40
2022-08-08T09:09:55.196Z,22.40
2022-08-08T09:12:31.359Z,22.50
2022-08-08T09:15:01.109Z,22.70
2022-08-08T09:17:41.721Z,22.80
2022-08-08T09:21:59.580Z,22.80
2022-08-08T09:23:11.486Z,23.00
2022-08-08T09:25:58.380Z,23.00
2022-08-08T09:28:38.573Z,23.00
2022-08-08T09:31:20.473Z,23.10
2022-08-08T09:34:14.615Z,23.20
2022-08-08T09:36:51.616Z,23.20
2022-08-08T09:39:44.490Z,23.30
2022-08-08T09:42:21.781Z,23.50
2022-08-08T09:45:08.182Z,23.50
2022-08-08T09:48:09.829Z,23.60
2022-08-08T09:50:32.442Z,23.70
2022-08-08T09:53:14.186Z,23.80
2022-08-08T09:56:04.167Z,23.90
2022-08-08T09:58:45.264Z,24.10
2022-08-08T10:02:03.164Z,24.10
2022-08-08T10:04:13.207Z,24.20
2022-08-08T10:06:44.933Z,24.40
2022-08-08T10:09:13.410Z,24.50
2022-08-08T10:12:26.491Z,24.60
2022-08-08T10:14:39.346Z,24.70
2022-08-08T10:17:57.136Z,24.70
2022-08-08T10:20:00.071Z,24.80
2022-08-08T10:22:30.131Z,24.80
2022-08-08T10:25:04.829Z,24.80
2022-08-08T10:27:42.967Z,24.90
2022-08-08T10:30:16.602Z,25.10
2022-08-08T10:33:00.452Z,25.20
2022-08-08T10:36:08.765Z,25.30
2022-08-08T10:38:19.885Z,25.40
2022-08-08T10:40:53.471Z,25.40
2022-08-08T10:43:23.183Z,25.50
2022-08-08T10:45:56.674Z,25.60
2022-08-08T10:48:56.556Z,25.60
2022-08-08T10:51:30.924Z,25.80
2022-08-08T10:54:02.078Z,25.70
2022-08-08T10:56:34.527Z,25.90
2022-08-08T10:59:09.309Z,26.00
2022-08-08T11:01:39.312Z,26.20
2022-08-08T11:04:10.425Z,26.30
2022-08-08T11:06:41.680Z,26.30
2022-08-08T11:09:21.625Z,26.20
2022-08-08T11:12:06.527Z,26.40
2022-08-08T11:14:57.034Z,26.50
2022-08-08T11:17:58.821Z,26.70
2022-08-08T11:20:18.064Z,26.90
2022-08-08T11:22:54.675Z,26.90
2022-08-08T11:25:53.631Z,27.00
2022-08-08T11:28:18.572Z,27.10
2022-08-08T11:30:52.050Z,27.20
2022-08-08T11:33:53.278Z,27.30
2022-08-08T11:36:15.002Z,27.40
2022-08-08T11:38:55.200Z,27.40
2022-08-08T11:41:32.574Z,27.50
2022-08-08T11:44:02.372Z,27.70
2022-08-08T11:46:32.591Z,27.90
2022-08-08T11:49:07.533Z,28.00
2022-08-08T11:51:50.282Z,28.20
2022-08-08T11:54:44.824Z,28.30
2022-08-08T11:57:36.753Z,28.30
2022-08-08T12:00:10.405Z,28.50
2022-08-08T12:02:51.580Z,28.10
2022-08-08T12:05:22.750Z,27.90
2022-08-08T12:07:55.848Z,28.00
2022-08-08T12:10:26.398Z,28.10
2022-08-08T12:13:05.932Z,28.20
2022-08-08T12:15:41.949Z,28.40
2022-08-08T12:18:13.516Z,28.60
2022-08-08T12:20:41.778Z,28.90
2022-08-08T12:23:13.785Z,29.10
2022-08-08T12:25:52.485Z,29.30
2022-08-08T12:28:20.131Z,29.50
2022-08-08T12:30:50.150Z,29.70
2022-08-08T12:33:37.023Z,29.80
2022-08-08T12:36:16.361Z,29.90
2022-08-08T12:38:55.429Z,30.00
2022-08-08T12:41:35.054Z,30.00
2022-08-08T12:44:30.396Z,30.10
2022-08-08T12:47:01.185Z,30.20
2022-08-08T12:49:43.825Z,30.30
2022-08-08T12:52:28.893Z,30.20
2022-08-08T12:55:09.388Z,30.20
2022-08-08T12:57:49.968Z,30.20
2022-08-08T13:00:33.957Z,30.30
2022-08-08T13:03:07.363Z,30.40
2022-08-08T13:06:03.455Z,30.20
2022-08-08T13:08:22.356Z,30.00
2022-08-08T13:11:02.552Z,29.80
2022-08-08T13:13:35.051Z,29.90
2022-08-08T13:16:25.874Z,30.00
2022-08-08T13:19:01.739Z,30.20
2022-08-08T13:21:58.097Z,30.40
2022-08-08T13:24:40.655Z,30.50
2022-08-08T13:27:15.065Z,30.60
2022-08-08T13:30:03.697Z,30.80
2022-08-08T13:32:37.039Z,31.00
2022-08-08T13:35:11.482Z,31.30
2022-08-08T13:38:06.430Z,31.70
2022-08-08T13:40:36.739Z,32.10
2022-08-08T13:43:09.218Z,32.30
2022-08-08T13:45:37.014Z,32.20
2022-08-08T13:48:13.175Z,32.40
2022-08-08T13:50:51.051Z,32.80
2022-08-08T13:53:33.808Z,33.30
2022-08-08T13:56:11.565Z,33.80
2022-08-08T13:58:57.459Z,34.40
2022-08-08T14:01:41.583Z,34.90
2022-08-08T14:04:25.003Z,35.00
2022-08-08T14:07:03.266Z,35.40
2022-08-08T14:10:04.369Z,35.40
2022-08-08T14:12:29.489Z,35.00
2022-08-08T14:14:57.288Z,34.40
2022-08-08T14:17:57.277Z,34.00
2022-08-08T14:20:15.545Z,34.20
2022-08-08T14:23:21.310Z,34.50
2022-08-08T14:26:10.485Z,35.10
2022-08-08T14:28:49.730Z,35.60
2022-08-08T14:31:23.572Z,36.10
2022-08-08T14:34:22.867Z,36.20
2022-08-08T14:36:51.904Z,36.20
2022-08-08T14:39:24.745Z,35.60
2022-08-08T14:42:03.223Z,35.10
2022-08-08T14:44:35.138Z,35.30
2022-08-08T14:47:16.751Z,35.60
2022-08-08T14:50:06.612Z,35.80
2022-08-08T14:52:48.379Z,35.70
2022-08-08T14:55:22.693Z,35.90
2022-08-08T14:58:12.132Z,36.00
2022-08-08T15:00:45.244Z,36.00
2022-08-08T15:03:17.242Z,36.20
2022-08-08T15:05:53.907Z,36.60
2022-08-08T15:08:33.421Z,36.90
2022-08-08T15:11:04.827Z,37.10
2022-08-08T15:13:35.168Z,37.50
2022-08-08T15:16:12.206Z,37.70
2022-08-08T15:18:50.185Z,37.90
2022-08-08T15:21:20.758Z,37.60
2022-08-08T15:23:51.528Z,37.60
2022-08-08T15:26:20.192Z,37.60
2022-08-08T15:28:50.809Z,37.60
2022-08-08T15:31:49.046Z,37.60
2022-08-08T15:34:18.253Z,37.60
2022-08-08T15:36:56.261Z,37.60
2022-08-08T15:39:23.619Z,37.50
2022-08-08T15:41:54.858Z,37.50
2022-08-08T15:44:22.253Z,37.50
2022-08-08T15:46:50.587Z,37.70
2022-08-08T15:49:21.106Z,37.80
2022-08-08T15:51:50.353Z,37.80
2022-08-08T15:54:38.865Z,37.60
2022-08-08T15:57:09.350Z,37.40
2022-08-08T16:00:26.365Z,37.20
2022-08-08T16:02:30.999Z,37.00
2022-08-08T16:05:00.526Z,36.80
2022-08-08T16:07:50.806Z,36.60
2022-08-08T16:13:11.187Z,36.50
2022-08-08T16:13:28.497Z,36.40
2022-08-08T16:15:59.192Z,36.20
2022-08-08T16:18:33.749Z,36.10
2022-08-08T16:21:01.457Z,36.20
2022-08-08T16:23:32.521Z,36.20
2022-08-08T16:26:03.992Z,36.30
2022-08-08T16:28:35.009Z,36.50
2022-08-08T16:31:07.457Z,36.50
2022-08-08T16:33:38.461Z,36.80
2022-08-08T16:36:15.846Z,36.80
2022-08-08T16:38:53.902Z,36.90
2022-08-08T16:41:23.878Z,36.70
2022-08-08T16:43:53.080Z,36.60
2022-08-08T16:46:44.138Z,36.60
2022-08-08T16:49:08.912Z,36.40
2022-08-08T16:55:03.017Z,36.20
2022-08-08T16:55:03.547Z,35.80
2022-08-08T16:57:23.576Z,35.40
2022-08-08T17:00:08.872Z,34.80
2022-08-08T17:02:38.399Z,34.60
2022-08-08T17:05:08.611Z,34.30
2022-08-08T17:07:40.386Z,33.90
2022-08-08T17:10:10.089Z,33.50
2022-08-08T17:12:41.507Z,33.30
2022-08-08T17:15:20.227Z,33.10
2022-08-08T17:18:02.464Z,33.00
2022-08-08T17:20:39.708Z,32.90
2022-08-08T17:23:17.674Z,32.90
2022-08-08T17:25:58.437Z,32.80
2022-08-08T17:28:35.196Z,33.00
2022-08-08T17:31:39.399Z,33.00
2022-08-08T17:34:36.437Z,33.20
2022-08-08T17:37:03.366Z,32.90
2022-08-08T17:40:03.283Z,32.80
2022-08-08T17:42:19.972Z,32.80
2022-08-08T17:44:50.979Z,32.90
2022-08-08T17:47:24.063Z,32.90
2022-08-08T17:50:00.921Z,32.80
2022-08-08T17:52:34.294Z,32.60
2022-08-08T17:55:05.453Z,32.50
2022-08-08T17:57:37.514Z,32.40
2022-08-08T18:00:19.224Z,32.30
2022-08-08T18:02:52.639Z,32.20
2022-08-08T18:05:48.033Z,32.10
2022-08-08T18:08:38.142Z,31.90
2022-08-08T18:11:14.929Z,31.80
2022-08-08T18:13:45.205Z,32.00
2022-08-08T18:16:17.005Z,31.80
2022-08-08T18:18:55.952Z,31.90
2022-08-08T18:21:59.749Z,31.90
2022-08-08T18:24:19.513Z,31.90
2022-08-08T18:26:54.346Z,32.00
2022-08-08T18:29:33.808Z,31.90
2022-08-08T18:32:07.186Z,31.80
2022-08-08T18:34:36.135Z,31.70
2022-08-08T18:37:08.096Z,31.70
2022-08-08T18:39:38.612Z,31.60
2022-08-08T18:42:15.744Z,31.50
2022-08-08T18:44:55.546Z,31.50
2022-08-08T18:47:25.524Z,31.30
2022-08-08T18:49:58.914Z,30.80
2022-08-08T18:52:30.567Z,30.60
2022-08-08T18:54:59.142Z,30.20
2022-08-08T18:57:31.963Z,30.10
2022-08-08T19:00:09.437Z,30.00
2022-08-08T19:02:48.113Z,29.90
2022-08-08T19:05:16.003Z,29.50
2022-08-08T19:07:51.954Z,29.30
2022-08-08T19:10:19.708Z,29.00
2022-08-08T19:12:53.084Z,28.60
2022-08-08T19:15:26.207Z,28.50
2022-08-08T19:18:31.158Z,28.10
2022-08-08T19:20:52.019Z,27.80
2022-08-08T19:23:21.443Z,27.40
2022-08-08T19:26:19.933Z,27.10
2022-08-08T19:28:36.834Z,26.80
2022-08-08T19:31:09.045Z,26.30
2022-08-08T19:33:51.716Z,26.00
2022-08-08T19:36:25.301Z,25.70
2022-08-08T19:38:58.565Z,25.40
2022-08-08T19:41:29.603Z,25.30
2022-08-08T19:44:03.994Z,25.00
2022-08-08T19:46:40.141Z,24.80
2022-08-08T19:49:09.707Z,24.60
2022-08-08T19:51:41.572Z,24.40
2022-08-08T19:54:11.522Z,24.20
2022-08-08T19:56:41.371Z,24.10
2022-08-08T19:59:10.051Z,23.50
2022-08-08T20:02:02.194Z,23.90
2022-08-08T20:04:28.116Z,23.70
2022-08-08T20:06:57.776Z,23.60
2022-08-08T20:09:32.445Z,23.50
2022-08-08T20:12:08.651Z,23.40
2022-08-08T20:14:41.949Z,23.40
2022-08-08T20:17:09.670Z,23.30
2022-08-08T20:19:43.432Z,23.60
2022-08-08T20:22:20.760Z,23.20
2022-08-08T20:24:53.625Z,23.20
2022-08-08T20:27:21.263Z,23.20
2022-08-08T20:29:55.963Z,23.00
2022-08-08T20:32:29.926Z,22.90
2022-08-08T20:35:01.108Z,22.80
2022-08-08T20:37:46.752Z,22.80
2022-08-08T20:40:33.523Z,22.80
2022-08-08T20:43:16.424Z,22.70
2022-08-08T20:45:57.818Z,22.70
2022-08-08T20:48:30.910Z,22.60
2022-08-08T20:50:58.819Z,22.60
2022-08-08T20:53:59.233Z,22.90
2022-08-08T20:56:14.956Z,22.50
2022-08-08T20:58:47.639Z,22.30
2022-08-08T21:01:20.056Z,22.40
2022-08-08T21:03:59.722Z,22.40
2022-08-08T21:06:52.033Z,22.40
2022-08-08T21:09:16.486Z,22.30
2022-08-08T21:11:51.505Z,22.30
2022-08-08T21:14:33.445Z,22.30
2022-08-08T21:17:06.182Z,22.20
2022-08-08T21:19:45.710Z,22.20
2022-08-08T21:22:14.647Z,22.10
2022-08-08T21:24:52.759Z,22.10
2022-08-08T21:28:05.227Z,22.00
2022-08-08T21:30:19.184Z,22.00
2022-08-08T21:32:51.553Z,22.00
2022-08-08T21:36:14.845Z,21.90
2022-08-08T21:38:16.267Z,21.90
2022-08-08T21:40:56.148Z,21.90
2022-08-08T21:43:31.113Z,21.80
2022-08-08T21:48:03.731Z,21.80
2022-08-08T21:48:58.722Z,21.80
2022-08-08T21:54:32.652Z,21.70
2022-08-08T21:54:54.002Z,21.70
2022-08-08T21:57:04.931Z,21.60
2022-08-08T22:00:01.641Z,21.60
2022-08-08T22:02:23.317Z,21.50
2022-08-08T22:04:56.077Z,21.50
2022-08-08T22:07:39.652Z,21.40
2022-08-08T22:10:18.470Z,21.40
2022-08-08T22:13:18.534Z,21.10
2022-08-08T22:15:58.604Z,21.40
2022-08-08T22:18:32.631Z,21.30
2022-08-08T22:21:11.092Z,21.30
2022-08-08T22:23:49.372Z,21.30
2022-08-08T22:26:29.180Z,21.20
2022-08-08T22:29:14.283Z,21.20
2022-08-08T22:32:02.430Z,21.10
2022-08-08T22:34:39.197Z,21.20
2022-08-08T22:37:27.525Z,21.20
2022-08-08T22:40:01.195Z,21.10
2022-08-08T22:42:31.650Z,21.30
2022-08-08T22:45:02.528Z,21.30
2022-08-08T22:47:34.215Z,21.00
2022-08-08T22:50:09.956Z,20.90
2022-08-08T22:54:30.924Z,20.90
2022-08-08T22:55:59.475Z,20.80
2022-08-08T22:58:34.332Z,20.80
2022-08-08T23:02:03.076Z,20.60
2022-08-08T23:03:56.428Z,20.70
2022-08-08T23:06:27.172Z,20.70
2022-08-08T23:09:00.119Z,20.70
2022-08-08T23:11:30.767Z,20.60
2022-08-08T23:14:18.809Z,20.80
2022-08-08T23:16:54.405Z,20.90
2022-08-08T23:19:30.853Z,20.70
2022-08-08T23:22:04.251Z,20.80
2022-08-08T23:24:41.605Z,20.50
2022-08-08T23:27:37.953Z,20.50
2022-08-08T23:30:03.007Z,20.50
2022-08-08T23:32:31.955Z,20.60
2022-08-08T23:35:00.480Z,20.50
2022-08-08T23:38:00.924Z,20.40
2022-08-08T23:40:15.961Z,20.30
2022-08-08T23:42:45.094Z,20.60
2022-08-08T23:45:13.039Z,20.30
2022-08-08T23:49:03.135Z,20.40
2022-08-08T23:50:30.130Z,20.40
2022-08-08T23:52:59.164Z,20.30
2022-08-08T23:55:33.407Z,20.20
2022-08-08T23:58:09.899Z,20.20
